Time;durP1;ratioP1;P1;durP2;ratioP2;P2;SDS_P1;SDS_P2;PMS_P1;PMS_P2;Temp;Humidity;BMP_temperature;BMP_pressure;BME280_temperature;BME280_humidity;BME280_pressure;Samples;Min_cycle;Max_cycle;Signal;HPM_P1;HPM_P2
2022/03/17 00:01:38;;;;;;;0.80;0.80;;;;;;;;;;4978339;28;20034;-88
2022/03/17 00:04:04;;;;;;;0.60;0.60;;;;;;;;;;4981010;28;20525;-88
2022/03/17 00:06:30;;;;;;;0.73;0.73;;;;;;;;;;4980398;28;20069;-89
2022/03/17 00:08:57;;;;;;;0.70;0.70;;;;;;;;;;4981044;28;20058;-87
2022/03/17 00:11:23;;;;;;;0.95;0.95;;;;;;;;;;4979863;28;20030;-88
2022/03/17 00:13:49;;;;;;;0.80;0.80;;;;;;;;;;4980652;28;20505;-88
2022/03/17 00:16:15;;;;;;;0.60;0.60;;;;;;;;;;4979223;28;20031;-88
2022/03/17 00:18:41;;;;;;;0.73;0.73;;;;;;;;;;4981966;28;20046;-89
2022/03/17 00:21:08;;;;;;;1.77;1.77;;;;;;;;;;4979891;28;20139;-85
2022/03/17 00:23:34;;;;;;;0.73;0.73;;;;;;;;;;4978279;28;20061;-86
2022/03/17 00:26:00;;;;;;;0.60;0.60;;;;;;;;;;4978150;28;20269;-86
2022/03/17 00:28:26;;;;;;;0.70;0.70;;;;;;;;;;4977423;28;20325;-86
2022/03/17 00:30:52;;;;;;;0.50;0.50;;;;;;;;;;4975426;28;20048;-86
2022/03/17 00:33:18;;;;;;;0.93;0.93;;;;;;;;;;4977050;28;20042;-87
2022/03/17 00:35:44;;;;;;;0.73;0.73;;;;;;;;;;4974319;28;20297;-86
2022/03/17 00:38:14;;;;;;;1.67;1.67;;;;;;;;;;4974961;28;20557;-86
2022/03/17 00:40:41;;;;;;;0.60;0.60;;;;;;;;;;4976196;28;20053;-86
2022/03/17 00:43:12;;;;;;;0.65;0.65;;;;;;;;;;4974417;28;20520;-87
2022/03/17 00:45:38;;;;;;;0.40;0.40;;;;;;;;;;4976900;28;20082;-86
2022/03/17 00:48:05;;;;;;;0.40;0.40;;;;;;;;;;4976910;28;20399;-85
2022/03/17 00:50:31;;;;;;;0.70;0.70;;;;;;;;;;4978809;28;20510;-85
2022/03/17 00:52:59;;;;;;;1.35;1.35;;;;;;;;;;4975112;28;21590;-86
2022/03/17 00:55:25;;;;;;;0.50;0.50;;;;;;;;;;4975393;28;20133;-85
2022/03/17 00:57:51;;;;;;;0.60;0.60;;;;;;;;;;4977759;28;20034;-91
2022/03/17 01:00:18;;;;;;;0.52;0.52;;;;;;;;;;4980249;28;20038;-90
2022/03/17 01:02:46;;;;;;;1.02;1.02;;;;;;;;;;4984133;28;20038;-90
2022/03/17 01:05:12;;;;;;;0.60;0.60;;;;;;;;;;4980119;28;20045;-88
2022/03/17 01:07:38;;;;;;;0.70;0.70;;;;;;;;;;4978030;28;20070;-85
2022/03/17 01:10:05;;;;;;;0.82;0.82;;;;;;;;;;4975808;28;20046;-83
2022/03/17 01:12:31;;;;;;;;;;;;;;;;;;4975543;28;20050;-83
2022/03/17 01:14:57;;;;;;;0.60;0.60;;;;;;;;;;4974265;28;19918;-83
2022/03/17 01:17:23;;;;;;;0.70;0.70;;;;;;;;;;4976051;28;20038;-84
2022/03/17 01:19:49;;;;;;;0.77;0.77;;;;;;;;;;4976781;28;20108;-84
2022/03/17 01:22:16;;;;;;;0.77;0.77;;;;;;;;;;4976593;28;20834;-84
2022/03/17 01:24:42;;;;;;;0.70;0.70;;;;;;;;;;4978685;28;20030;-83
2022/03/17 01:27:09;;;;;;;0.70;0.70;;;;;;;;;;4977968;28;20034;-84
2022/03/17 01:29:35;;;;;;;0.50;0.50;;;;;;;;;;4975701;28;20038;-84
2022/03/17 01:32:01;;;;;;;0.60;0.60;;;;;;;;;;4977048;28;20419;-84
2022/03/17 01:34:28;;;;;;;0.50;0.50;;;;;;;;;;4977278;28;20049;-84
2022/03/17 01:36:54;;;;;;;0.70;0.70;;;;;;;;;;4977338;28;20457;-83
2022/03/17 01:39:20;;;;;;;0.70;0.70;;;;;;;;;;4975277;28;20053;-83
2022/03/17 01:41:46;;;;;;;0.60;0.60;;;;;;;;;;4977730;28;20034;-83
2022/03/17 01:44:12;;;;;;;0.70;0.70;;;;;;;;;;4979226;28;20061;-83
2022/03/17 01:49:23;;;;;;;0.60;0.60;;;;;;;;;;4982531;28;20044;-84
2022/03/17 01:51:49;;;;;;;0.60;0.60;;;;;;;;;;4980530;28;20034;-83
2022/03/17 01:54:16;;;;;;;0.80;0.80;;;;;;;;;;4980341;28;20034;-84
2022/03/17 01:56:43;;;;;;;0.70;0.70;;;;;;;;;;4981777;28;20157;-84
2022/03/17 01:59:09;;;;;;;0.63;0.63;;;;;;;;;;4982395;28;20509;-83
2022/03/17 02:01:35;;;;;;;0.60;0.60;;;;;;;;;;4982752;28;20034;-84
2022/03/17 02:04:01;;;;;;;0.60;0.60;;;;;;;;;;4983256;28;20292;-84
2022/03/17 02:06:27;;;;;;;0.60;0.60;;;;;;;;;;4981080;28;20031;-83
2022/03/17 02:08:53;;;;;;;0.73;0.73;;;;;;;;;;4980569;28;20054;-83
2022/03/17 02:14:04;;;;;;;0.80;0.80;;;;;;;;;;4981952;28;20136;-84
2022/03/17 02:16:30;;;;;;;0.60;0.60;;;;;;;;;;4980799;28;20059;-83
2022/03/17 02:18:59;;;;;;;0.70;0.70;;;;;;;;;;4980815;28;20061;-82
2022/03/17 02:21:25;;;;;;;0.70;0.70;;;;;;;;;;4980743;28;20286;-83
2022/03/17 02:26:37;;;;;;;1.02;1.02;;;;;;;;;;4982020;28;20053;-80
2022/03/17 02:29:04;;;;;;;0.70;0.70;;;;;;;;;;4978812;28;20035;-80
2022/03/17 02:31:30;;;;;;;0.70;0.70;;;;;;;;;;4977718;28;20045;-81
2022/03/17 02:33:56;;;;;;;1.48;1.48;;;;;;;;;;4976303;28;20044;-81
2022/03/17 02:36:22;;;;;;;0.80;0.80;;;;;;;;;;4978941;28;20030;-84
2022/03/17 02:38:48;;;;;;;0.70;0.70;;;;;;;;;;4978009;28;20039;-84
2022/03/17 02:41:21;;;;;;;0.60;0.60;;;;;;;;;;4978019;28;20062;-84
2022/03/17 02:43:51;;;;;;;0.80;0.80;;;;;;;;;;4977866;28;20121;-82
2022/03/17 02:46:18;;;;;;;0.85;0.85;;;;;;;;;;4979494;28;20438;-82
2022/03/17 02:48:44;;;;;;;1.10;1.10;;;;;;;;;;4980297;28;20144;-82
2022/03/17 02:51:10;;;;;;;1.13;1.13;;;;;;;;;;4981247;28;20517;-82
2022/03/17 02:53:36;;;;;;;0.90;0.90;;;;;;;;;;4979015;28;21761;-83
2022/03/17 02:56:02;;;;;;;1.07;1.07;;;;;;;;;;4978339;28;20092;-81
2022/03/17 02:58:31;;;;;;;1.00;1.00;;;;;;;;;;4976383;28;20049;-81
2022/03/17 03:00:57;;;;;;;0.80;0.80;;;;;;;;;;4979572;28;20018;-81
2022/03/17 03:03:23;;;;;;;1.17;1.17;;;;;;;;;;4981446;28;20044;-81
2022/03/17 03:05:50;;;;;;;1.20;1.20;;;;;;;;;;4977576;28;20030;-81
2022/03/17 03:08:16;;;;;;;0.90;0.90;;;;;;;;;;4980105;28;20058;-87
2022/03/17 03:10:44;;;;;;;1.05;1.05;;;;;;;;;;4979694;28;20425;-87
2022/03/17 03:13:10;;;;;;;1.00;1.00;;;;;;;;;;4979764;28;20026;-87
2022/03/17 03:15:36;;;;;;;0.90;0.90;;;;;;;;;;4979123;28;20046;-87
2022/03/17 03:18:02;;;;;;;0.90;0.90;;;;;;;;;;4978728;28;20034;-87
2022/03/17 03:20:28;;;;;;;0.80;0.80;;;;;;;;;;4979418;28;20033;-87
2022/03/17 03:22:54;;;;;;;0.93;0.93;;;;;;;;;;4980979;28;20257;-87
2022/03/17 03:25:20;;;;;;;1.15;1.15;;;;;;;;;;4981502;28;20446;-88
2022/03/17 03:27:46;;;;;;;1.53;1.53;;;;;;;;;;4979723;28;20035;-87
2022/03/17 03:30:13;;;;;;;1.20;1.20;;;;;;;;;;4979652;28;20035;-87
2022/03/17 03:32:39;;;;;;;;;;;;;;;;;;4977941;28;20030;-86
2022/03/17 03:37:51;;;;;;;1.20;1.20;;;;;;;;;;4979785;28;20060;-86
2022/03/17 03:40:17;;;;;;;1.27;1.27;;;;;;;;;;4979492;28;20057;-86
2022/03/17 03:42:44;;;;;;;1.10;1.10;;;;;;;;;;4978452;28;20113;-87
2022/03/17 03:45:10;;;;;;;1.20;1.20;;;;;;;;;;4979650;28;20057;-86
2022/03/17 03:47:36;;;;;;;1.20;1.20;;;;;;;;;;4979052;28;20046;-85
2022/03/17 03:50:03;;;;;;;1.10;1.10;;;;;;;;;;4979158;28;20128;-87
2022/03/17 03:52:29;;;;;;;1.20;1.20;;;;;;;;;;4979749;28;20030;-86
2022/03/17 03:54:55;;;;;;;1.10;1.10;;;;;;;;;;4977715;28;20045;-86
2022/03/17 03:57:21;;;;;;;0.90;0.90;;;;;;;;;;4979281;28;20042;-86
2022/03/17 03:59:48;;;;;;;2.30;2.27;;;;;;;;;;4979001;28;20050;-87
2022/03/17 04:02:14;;;;;;;;;;;;;;;;;;4982107;28;20034;-87
2022/03/17 04:04:41;;;;;;;1.23;1.23;;;;;;;;;;4979933;28;19960;-86
2022/03/17 04:07:09;;;;;;;0.77;0.77;;;;;;;;;;4978576;28;20041;-81
2022/03/17 04:09:38;;;;;;;0.60;0.60;;;;;;;;;;4965818;28;20149;-81
2022/03/17 04:12:05;;;;;;;0.70;0.70;;;;;;;;;;4978433;28;20255;-80
2022/03/17 04:14:31;;;;;;;;;;;;;;;;;;4978112;28;20138;-81
2022/03/17 04:16:57;;;;;;;1.15;1.15;;;;;;;;;;4976912;28;19917;-80
2022/03/17 04:19:24;;;;;;;1.23;1.23;;;;;;;;;;4977066;28;20093;-81
2022/03/17 04:21:50;;;;;;;1.40;1.40;;;;;;;;;;4975763;28;20108;-79
2022/03/17 04:24:17;;;;;;;1.30;1.30;;;;;;;;;;4977626;28;20085;-80
2022/03/17 04:26:44;;;;;;;1.17;1.17;;;;;;;;;;4977851;28;20066;-83
2022/03/17 04:29:10;;;;;;;1.42;1.42;;;;;;;;;;4981225;28;20034;-81
2022/03/17 04:31:55;;;;;;;1.20;1.20;;;;;;;;;;4977978;28;20038;-79
2022/03/17 04:34:49;;;;;;;1.17;1.17;;;;;;;;;;4977579;28;20038;-80
2022/03/17 04:37:15;;;;;;;1.15;1.15;;;;;;;;;;4977316;28;20398;-81
2022/03/17 04:39:41;;;;;;;1.00;1.00;;;;;;;;;;4976291;28;20548;-81
2022/03/17 04:42:08;;;;;;;1.40;1.40;;;;;;;;;;4978283;28;20282;-81
2022/03/17 04:44:34;;;;;;;1.20;1.20;;;;;;;;;;4978472;28;20031;-83
2022/03/17 04:47:00;;;;;;;1.27;1.27;;;;;;;;;;4976553;28;20120;-83
2022/03/17 04:49:26;;;;;;;1.20;1.20;;;;;;;;;;4981880;28;20038;-83
2022/03/17 04:51:52;;;;;;;1.00;1.00;;;;;;;;;;4978675;28;20061;-82
2022/03/17 04:54:18;;;;;;;0.83;0.83;;;;;;;;;;4978146;28;20093;-83
2022/03/17 04:56:44;;;;;;;1.33;1.33;;;;;;;;;;4978408;28;20058;-83
2022/03/17 04:59:10;;;;;;;1.30;1.30;;;;;;;;;;4978460;28;20038;-83
2022/03/17 05:01:36;;;;;;;1.40;1.40;;;;;;;;;;4978522;28;20034;-82
2022/03/17 05:04:03;;;;;;;0.93;0.93;;;;;;;;;;4977147;28;20034;-81
2022/03/17 05:06:29;;;;;;;1.23;1.23;;;;;;;;;;4975557;28;20030;-82
2022/03/17 05:08:55;;;;;;;1.10;1.10;;;;;;;;;;4978355;28;20093;-82
2022/03/17 05:11:22;;;;;;;1.10;1.10;;;;;;;;;;4976801;28;20038;-82
2022/03/17 05:13:48;;;;;;;1.20;1.20;;;;;;;;;;4986663;28;20192;-82
2022/03/17 05:16:14;;;;;;;1.25;1.25;;;;;;;;;;4976188;28;20065;-82
2022/03/17 05:19:04;;;;;;;1.33;1.33;;;;;;;;;;4975412;28;20069;-83
2022/03/17 05:21:34;;;;;;;1.33;1.33;;;;;;;;;;4978599;28;20645;-83
2022/03/17 05:24:00;;;;;;;1.10;1.10;;;;;;;;;;4975967;28;20391;-83
2022/03/17 05:26:26;;;;;;;1.00;1.00;;;;;;;;;;4976212;28;20089;-83
2022/03/17 05:28:53;;;;;;;1.10;1.10;;;;;;;;;;4975748;28;20046;-83
2022/03/17 05:31:19;;;;;;;1.10;1.10;;;;;;;;;;4976192;28;20030;-81
2022/03/17 05:33:45;;;;;;;1.20;1.20;;;;;;;;;;4977279;28;20141;-82
2022/03/17 05:36:11;;;;;;;1.00;1.00;;;;;;;;;;4972705;28;20033;-81
2022/03/17 05:38:37;;;;;;;1.27;1.27;;;;;;;;;;4974179;28;20105;-83
2022/03/17 05:41:03;;;;;;;1.43;1.43;;;;;;;;;;4978422;28;20081;-82
2022/03/17 05:43:29;;;;;;;1.30;1.30;;;;;;;;;;4974604;28;20031;-86
2022/03/17 05:45:55;;;;;;;1.10;1.10;;;;;;;;;;4975851;28;20045;-86
2022/03/17 05:48:22;;;;;;;1.27;1.27;;;;;;;;;;4975245;28;20305;-85
2022/03/17 05:50:48;;;;;;;1.00;1.00;;;;;;;;;;4975917;28;20844;-85
2022/03/17 05:53:14;;;;;;;0.70;0.70;;;;;;;;;;4974686;28;20751;-84
2022/03/17 05:55:40;;;;;;;0.80;0.80;;;;;;;;;;4975970;28;20038;-85
2022/03/17 05:58:06;;;;;;;1.13;1.13;;;;;;;;;;4976490;28;20294;-86
2022/03/17 06:00:32;;;;;;;1.10;1.10;;;;;;;;;;4975344;28;20053;-82
2022/03/17 06:02:59;;;;;;;1.20;1.20;;;;;;;;;;4977944;28;20058;-82
2022/03/17 06:05:25;;;;;;;1.30;1.30;;;;;;;;;;4980380;28;20041;-82
2022/03/17 06:07:53;;;;;;;1.17;1.17;;;;;;;;;;4981407;28;20122;-84
2022/03/17 06:10:27;;;;;;;0.90;0.90;;;;;;;;;;4963380;28;20046;-82
2022/03/17 06:12:53;;;;;;;1.00;1.00;;;;;;;;;;4981089;28;20052;-81
2022/03/17 06:15:20;;;;;;;1.20;1.20;;;;;;;;;;4976350;28;20026;-82
2022/03/17 06:17:49;;;;;;;;;;;;;;;;;;4982196;28;20031;-84
2022/03/17 06:20:16;;;;;;;1.20;1.20;;;;;;;;;;4982276;28;19926;-84
2022/03/17 06:22:43;;;;;;;1.20;1.20;;;;;;;;;;4981261;28;20082;-84
2022/03/17 06:25:09;;;;;;;;;;;;;;;;;;4980842;28;20037;-83
2022/03/17 06:27:35;;;;;;;0.90;0.90;;;;;;;;;;4977377;28;19914;-85
2022/03/17 06:30:05;;;;;;;0.90;0.90;;;;;;;;;;4980271;28;20065;-87
2022/03/17 06:32:32;;;;;;;0.85;0.85;;;;;;;;;;4983942;28;20068;-85
2022/03/17 06:34:58;;;;;;;0.80;0.80;;;;;;;;;;4981289;28;20029;-85
2022/03/17 06:37:24;;;;;;;0.90;0.90;;;;;;;;;;4980462;28;20443;-86
2022/03/17 06:39:50;;;;;;;1.33;1.33;;;;;;;;;;4984086;28;20189;-83
2022/03/17 06:42:16;;;;;;;0.70;0.70;;;;;;;;;;4985947;28;20840;-85
2022/03/17 06:44:42;;;;;;;0.80;0.80;;;;;;;;;;4983000;28;20609;-83
2022/03/17 06:47:08;;;;;;;0.60;0.60;;;;;;;;;;4978766;28;20030;-83
2022/03/17 06:49:34;;;;;;;0.80;0.80;;;;;;;;;;4980146;28;20044;-85
2022/03/17 06:52:00;;;;;;;0.80;0.80;;;;;;;;;;4982488;28;20058;-83
2022/03/17 06:54:26;;;;;;;0.90;0.90;;;;;;;;;;4983552;28;20034;-84
2022/03/17 06:56:52;;;;;;;0.30;0.30;;;;;;;;;;4984914;28;20026;-84
2022/03/17 06:59:18;;;;;;;0.37;0.37;;;;;;;;;;4981290;28;20149;-87
2022/03/17 07:01:44;;;;;;;0.10;0.10;;;;;;;;;;4977323;28;20141;-86
2022/03/17 07:04:10;;;;;;;0.20;0.20;;;;;;;;;;4985264;28;20105;-86
2022/03/17 07:06:36;;;;;;;0.20;0.20;;;;;;;;;;4985365;28;20633;-87
2022/03/17 07:09:02;;;;;;;0.57;0.57;;;;;;;;;;4985376;28;20430;-88
2022/03/17 07:11:29;;;;;;;0.20;0.20;;;;;;;;;;4986000;28;21043;-85
2022/03/17 07:13:55;;;;;;;0.30;0.30;;;;;;;;;;4984714;28;20035;-84
2022/03/17 07:16:21;;;;;;;0.20;0.20;;;;;;;;;;4985457;28;20101;-85
2022/03/17 07:18:47;;;;;;;0.37;0.37;;;;;;;;;;4984034;28;20038;-86
2022/03/17 07:21:13;;;;;;;0.43;0.43;;;;;;;;;;4984608;28;20284;-87
2022/03/17 07:23:39;;;;;;;0.20;0.20;;;;;;;;;;4984195;28;20039;-86
2022/03/17 07:26:05;;;;;;;0.20;0.20;;;;;;;;;;4985861;28;20037;-86
2022/03/17 07:28:31;;;;;;;0.20;0.20;;;;;;;;;;4984379;28;20034;-86
2022/03/17 07:30:57;;;;;;;0.40;0.40;;;;;;;;;;4982823;28;20505;-86
2022/03/17 07:33:23;;;;;;;0.30;0.30;;;;;;;;;;4983851;28;20033;-87
2022/03/17 07:35:50;;;;;;;0.30;0.30;;;;;;;;;;4983199;28;20121;-86
2022/03/17 07:38:16;;;;;;;0.75;0.75;;;;;;;;;;4985642;28;20045;-86
2022/03/17 07:40:43;;;;;;;0.30;0.30;;;;;;;;;;4983904;28;20528;-85
2022/03/17 07:43:09;;;;;;;0.30;0.30;;;;;;;;;;4984002;28;20030;-86
2022/03/17 07:45:35;;;;;;;0.20;0.20;;;;;;;;;;4983073;28;20266;-86
2022/03/17 07:48:01;;;;;;;0.43;0.43;;;;;;;;;;4982121;28;20571;-84
2022/03/17 07:50:27;;;;;;;0.30;0.30;;;;;;;;;;4983208;28;20081;-83
2022/03/17 07:52:53;;;;;;;0.30;0.30;;;;;;;;;;4982611;28;20038;-83
2022/03/17 07:55:19;;;;;;;0.30;0.30;;;;;;;;;;4981445;28;20048;-84
2022/03/17 07:57:46;;;;;;;0.67;0.67;;;;;;;;;;4983126;28;20085;-85
2022/03/17 08:00:12;;;;;;;;;;;;;;;;;;4981678;28;20325;-85
2022/03/17 08:02:40;;;;;;;0.50;0.50;;;;;;;;;;4983783;28;19964;-84
2022/03/17 08:05:07;;;;;;;0.30;0.30;;;;;;;;;;4983033;28;20117;-84
2022/03/17 08:07:33;;;;;;;0.30;0.30;;;;;;;;;;4977174;28;20037;-82
2022/03/17 08:09:59;;;;;;;0.37;0.37;;;;;;;;;;4982553;28;20065;-82
2022/03/17 08:12:26;;;;;;;0.50;0.50;;;;;;;;;;4981333;28;20030;-83
2022/03/17 08:14:53;;;;;;;0.57;0.57;;;;;;;;;;4978023;28;20030;-83
2022/03/17 08:17:19;;;;;;;0.60;0.60;;;;;;;;;;4979574;28;20038;-83
2022/03/17 08:19:45;;;;;;;0.40;0.40;;;;;;;;;;4978671;28;20042;-82
2022/03/17 08:22:11;;;;;;;0.40;0.40;;;;;;;;;;4981896;28;20300;-82
2022/03/17 08:24:37;;;;;;;0.80;0.80;;;;;;;;;;4981243;28;20058;-83
2022/03/17 08:27:04;;;;;;;0.43;0.43;;;;;;;;;;4981223;28;20128;-83
2022/03/17 08:29:30;;;;;;;;;;;;;;;;;;4984001;28;20115;-83
2022/03/17 08:31:56;;;;;;;0.70;0.70;;;;;;;;;;4983088;28;20429;-83
2022/03/17 08:34:22;;;;;;;0.40;0.40;;;;;;;;;;4982602;28;20022;-83
2022/03/17 08:36:54;;;;;;;0.40;0.40;;;;;;;;;;4981369;28;20037;-83
2022/03/17 08:39:20;;;;;;;0.55;0.55;;;;;;;;;;4981573;28;20038;-82
2022/03/17 08:41:46;;;;;;;0.40;0.40;;;;;;;;;;4982695;28;21357;-83
2022/03/17 08:44:12;;;;;;;0.30;0.30;;;;;;;;;;4983635;28;20410;-83
2022/03/17 08:49:23;;;;;;;0.30;0.30;;;;;;;;;;4982656;28;20068;-82
2022/03/17 08:51:51;;;;;;;0.60;0.60;;;;;;;;;;4980335;28;20034;-83
2022/03/17 08:54:17;;;;;;;19.63;18.20;;;;;;;;;;4980169;28;20042;-83
2022/03/17 08:56:43;;;;;;;33.53;31.80;;;;;;;;;;4980343;28;20037;-83
2022/03/17 08:59:12;;;;;;;19.50;18.52;;;;;;;;;;4982414;28;20042;-82
2022/03/17 09:01:38;;;;;;;29.00;27.48;;;;;;;;;;4980452;28;20814;-83
2022/03/17 09:04:05;;;;;;;14.13;13.43;;;;;;;;;;4982998;28;20084;-83
2022/03/17 09:06:31;;;;;;;36.65;34.70;;;;;;;;;;4982126;28;20069;-85
2022/03/17 09:08:57;;;;;;;2.97;2.87;;;;;;;;;;4979417;28;20778;-85
2022/03/17 09:11:24;;;;;;;1.30;1.30;;;;;;;;;;4983804;28;20284;-85
2022/03/17 09:13:50;;;;;;;0.38;0.38;;;;;;;;;;4980198;28;20030;-84
2022/03/17 09:16:19;;;;;;;0.10;0.10;;;;;;;;;;4983286;28;20026;-85
2022/03/17 09:18:45;;;;;;;0.00;0.00;;;;;;;;;;4982889;28;20404;-84
2022/03/17 09:21:11;;;;;;;0.10;0.10;;;;;;;;;;4983181;28;20457;-84
2022/03/17 09:23:37;;;;;;;0.00;0.00;;;;;;;;;;4984774;28;20549;-84
2022/03/17 09:26:03;;;;;;;0.40;0.40;;;;;;;;;;4985189;28;20108;-85
2022/03/17 09:28:30;;;;;;;0.20;0.20;;;;;;;;;;4983440;28;20069;-84
2022/03/17 09:30:56;;;;;;;0.30;0.30;;;;;;;;;;4982057;28;20022;-84
2022/03/17 09:33:25;;;;;;;0.30;0.30;;;;;;;;;;4981472;28;20042;-85
2022/03/17 09:35:51;;;;;;;0.30;0.30;;;;;;;;;;4981378;28;20076;-84
2022/03/17 09:38:17;;;;;;;0.30;0.30;;;;;;;;;;4984249;28;20037;-84
2022/03/17 09:40:43;;;;;;;0.20;0.20;;;;;;;;;;4981524;28;20106;-85
2022/03/17 09:43:18;;;;;;;0.00;0.00;;;;;;;;;;4980071;28;20514;-84
2022/03/17 09:45:45;;;;;;;0.00;0.00;;;;;;;;;;4981836;28;20313;-85
2022/03/17 09:48:11;;;;;;;;;;;;;;;;;;4980567;28;20464;-84
2022/03/17 09:50:38;;;;;;;0.10;0.10;;;;;;;;;;4983019;28;19910;-85
2022/03/17 09:53:04;;;;;;;0.10;0.10;;;;;;;;;;4981889;28;20801;-85
2022/03/17 09:55:30;;;;;;;0.08;0.08;;;;;;;;;;4980318;28;20042;-85
2022/03/17 09:57:57;;;;;;;0.00;0.00;;;;;;;;;;4978568;28;20044;-85
2022/03/17 10:00:47;;;;;;;0.00;0.00;;;;;;;;;;4979962;28;20556;-85
2022/03/17 10:03:09;;;;;;;0.00;0.00;;;;;;;;;;4980410;28;20035;-85
2022/03/17 10:05:35;;;;;;;0.00;0.00;;;;;;;;;;4983179;28;20085;-85
2022/03/17 10:08:01;;;;;;;0.00;0.00;;;;;;;;;;4985269;28;20855;-83
2022/03/17 10:10:37;;;;;;;131.03;107.93;;;;;;;;;;4983505;28;20305;-83
2022/03/17 10:13:07;;;;;;;1.00;0.97;;;;;;;;;;4984458;28;20449;-83
2022/03/17 10:15:33;;;;;;;0.50;0.50;;;;;;;;;;4986586;28;20289;-83
2022/03/17 10:18:00;;;;;;;2.15;1.40;;;;;;;;;;4984870;28;20109;-83
2022/03/17 10:20:27;;;;;;;1.13;1.05;;;;;;;;;;4987136;28;20046;-83
2022/03/17 10:22:54;;;;;;;0.95;0.93;;;;;;;;;;4984929;28;20046;-83
2022/03/17 10:25:21;;;;;;;2.63;2.05;;;;;;;;;;4978159;28;20490;-83
2022/03/17 10:27:54;;;;;;;2.60;1.23;;;;;;;;;;4985774;28;20073;-83
2022/03/17 10:30:24;;;;;;;0.77;0.30;;;;;;;;;;4986055;28;20029;-83
2022/03/17 10:32:57;;;;;;;2.63;1.95;;;;;;;;;;4983388;28;20042;-83
2022/03/17 10:35:26;;;;;;;10.23;0.73;;;;;;;;;;4983428;28;20394;-83
2022/03/17 10:37:52;;;;;;;3.30;0.90;;;;;;;;;;4986319;28;20173;-83
2022/03/17 10:40:18;;;;;;;1.13;0.98;;;;;;;;;;4984667;28;20038;-83
2022/03/17 10:42:44;;;;;;;0.50;0.50;;;;;;;;;;4984305;28;20037;-83
2022/03/17 10:45:10;;;;;;;0.43;0.35;;;;;;;;;;4983551;28;20063;-83
2022/03/17 10:47:38;;;;;;;1.92;1.60;;;;;;;;;;4985757;28;20134;-83
2022/03/17 10:50:04;;;;;;;1124.82;611.40;;;;;;;;;;4996858;28;20042;-83
2022/03/17 10:52:50;;;;;;;1.15;1.08;;;;;;;;;;4983300;28;20034;-83
2022/03/17 10:55:16;;;;;;;;;;;;;;;;;;4983647;28;20026;-83
2022/03/17 10:57:42;;;;;;;0.47;0.43;;;;;;;;;;4984628;28;19914;-83
2022/03/17 11:00:19;;;;;;;0.15;0.15;;;;;;;;;;4983258;28;20037;-83
2022/03/17 11:02:46;;;;;;;0.30;0.30;;;;;;;;;;4983988;28;20921;-83
2022/03/17 11:05:14;;;;;;;2.78;2.05;;;;;;;;;;4985554;28;20031;-83
2022/03/17 11:07:40;;;;;;;0.03;0.03;;;;;;;;;;4982111;28;20081;-83
2022/03/17 11:10:07;;;;;;;0.63;0.50;;;;;;;;;;4982690;28;20126;-83
2022/03/17 11:12:36;;;;;;;0.00;0.00;;;;;;;;;;4981207;28;20388;-84
2022/03/17 11:15:02;;;;;;;1.75;0.75;;;;;;;;;;4982786;28;20058;-84
2022/03/17 11:17:36;;;;;;;0.00;0.00;;;;;;;;;;4985996;28;20074;-83
2022/03/17 11:20:07;;;;;;;0.43;0.40;;;;;;;;;;4984563;28;20421;-83
2022/03/17 11:22:34;;;;;;;129.15;31.48;;;;;;;;;;4981428;28;20038;-83
2022/03/17 11:25:20;;;;;;;0.20;0.10;;;;;;;;;;4984379;28;20030;-84
2022/03/17 11:27:46;;;;;;;226.80;208.40;;;;;;;;;;4981991;28;20030;-85
2022/03/17 11:30:16;;;;;;;0.22;0.22;;;;;;;;;;4981279;28;20757;-85
2022/03/17 11:32:54;;;;;;;1.13;1.13;;;;;;;;;;4983700;28;20509;-84
2022/03/17 11:35:21;;;;;;;0.80;0.80;;;;;;;;;;4976206;28;20076;-84
2022/03/17 11:37:47;;;;;;;0.10;0.10;;;;;;;;;;4984099;28;20464;-82
2022/03/17 11:40:19;;;;;;;79.03;67.03;;;;;;;;;;4983580;28;20046;-83
2022/03/17 11:43:07;;;;;;;0.00;0.00;;;;;;;;;;4983828;28;20753;-83
2022/03/17 11:45:36;;;;;;;0.00;0.00;;;;;;;;;;4976950;28;20050;-84
2022/03/17 11:48:03;;;;;;;0.00;0.00;;;;;;;;;;4983038;28;20026;-84
2022/03/17 11:50:31;;;;;;;0.00;0.00;;;;;;;;;;4985623;28;20062;-83
2022/03/17 11:53:05;;;;;;;0.00;0.00;;;;;;;;;;4984764;28;20053;-83
2022/03/17 11:55:43;;;;;;;279.02;87.68;;;;;;;;;;4980394;28;20038;-83
2022/03/17 11:58:19;;;;;;;0.10;0.10;;;;;;;;;;4979638;28;20458;-83
2022/03/17 12:01:13;;;;;;;2.20;2.17;;;;;;;;;;4984314;28;20108;-84
2022/03/17 12:03:47;;;;;;;0.20;0.20;;;;;;;;;;4974580;28;20035;-84
2022/03/17 12:06:14;;;;;;;0.10;0.10;;;;;;;;;;4984118;28;20038;-83
2022/03/17 12:08:41;;;;;;;;;;;;;;;;;;4982279;28;20043;-83
2022/03/17 12:11:14;;;;;;;0.10;0.10;;;;;;;;;;4978772;28;19948;-83
2022/03/17 12:13:41;;;;;;;0.10;0.10;;;;;;;;;;4981612;28;20034;-83
2022/03/17 12:16:08;;;;;;;0.10;0.10;;;;;;;;;;4982979;28;20030;-84
2022/03/17 12:19:00;;;;;;;0.63;0.63;;;;;;;;;;4981931;28;20619;-84
2022/03/17 12:21:45;;;;;;;0.30;0.30;;;;;;;;;;4978616;28;20042;-83
2022/03/17 12:24:11;;;;;;;0.30;0.30;;;;;;;;;;4983670;28;20030;-83
2022/03/17 12:26:37;;;;;;;0.37;0.37;;;;;;;;;;4983528;28;20034;-83
2022/03/17 12:29:04;;;;;;;0.70;0.70;;;;;;;;;;4983380;28;20277;-83
2022/03/17 12:31:30;;;;;;;0.30;0.30;;;;;;;;;;4975914;28;20036;-83
2022/03/17 12:33:56;;;;;;;0.30;0.30;;;;;;;;;;4982437;28;20109;-84
2022/03/17 12:36:23;;;;;;;0.20;0.20;;;;;;;;;;4982374;28;20081;-83
2022/03/17 12:38:49;;;;;;;0.20;0.20;;;;;;;;;;4982501;28;20054;-83
2022/03/17 12:41:16;;;;;;;0.10;0.10;;;;;;;;;;4982145;28;20089;-84
2022/03/17 12:43:42;;;;;;;0.40;0.40;;;;;;;;;;4980536;28;20109;-80
2022/03/17 12:46:08;;;;;;;;;;;;;;;;;;4980644;28;20038;-82
2022/03/17 12:48:34;;;;;;;0.40;0.40;;;;;;;;;;4981410;28;19922;-84
2022/03/17 12:51:12;;;;;;;0.20;0.20;;;;;;;;;;4979923;28;20039;-84
2022/03/17 12:53:40;;;;;;;0.20;0.20;;;;;;;;;;4983419;28;20034;-83
2022/03/17 12:56:06;;;;;;;0.30;0.30;;;;;;;;;;4984001;28;20046;-84
2022/03/17 12:58:41;;;;;;;0.20;0.20;;;;;;;;;;4979557;28;20043;-83
2022/03/17 13:01:07;;;;;;;0.20;0.20;;;;;;;;;;4980800;28;20041;-83
2022/03/17 13:03:33;;;;;;;0.20;0.20;;;;;;;;;;4980060;28;20034;-84
2022/03/17 13:08:45;;;;;;;165.80;153.93;;;;;;;;;;4976087;28;20112;-82
2022/03/17 13:16:41;;;;;;;0.08;0.08;;;;;;;;;;4980648;28;20529;-83
2022/03/17 13:19:08;;;;;;;0.10;0.10;;;;;;;;;;4980645;28;20092;-83
2022/03/17 13:21:35;;;;;;;0.00;0.00;;;;;;;;;;4982508;28;21005;-83
2022/03/17 13:24:12;;;;;;;0.00;0.00;;;;;;;;;;4980734;28;20033;-83
2022/03/17 13:26:39;;;;;;;1.83;1.80;;;;;;;;;;4982721;28;20038;-83
2022/03/17 13:29:05;;;;;;;0.13;0.13;;;;;;;;;;4981960;28;20494;-83
2022/03/17 13:31:41;;;;;;;0.50;0.50;;;;;;;;;;4980091;28;20038;-84
2022/03/17 13:34:07;;;;;;;1.10;1.10;;;;;;;;;;4974255;28;20108;-82
2022/03/17 13:36:52;;;;;;;1.00;1.00;;;;;;;;;;4982549;28;20034;-83
2022/03/17 13:39:18;;;;;;;0.90;0.90;;;;;;;;;;4975266;28;20061;-83
2022/03/17 13:42:05;;;;;;;1.02;1.02;;;;;;;;;;4986148;28;20089;-83
2022/03/17 13:44:48;;;;;;;0.80;0.80;;;;;;;;;;4979439;28;20035;-83
2022/03/17 13:47:21;;;;;;;0.90;0.90;;;;;;;;;;4986489;28;20046;-83
2022/03/17 13:50:06;;;;;;;0.73;0.73;;;;;;;;;;4984013;28;20030;-83
2022/03/17 13:52:32;;;;;;;0.85;0.85;;;;;;;;;;4981626;28;20043;-83
2022/03/17 13:54:58;;;;;;;0.87;0.87;;;;;;;;;;4983969;28;20098;-83
2022/03/17 13:57:24;;;;;;;0.80;0.80;;;;;;;;;;4983986;28;20277;-83
2022/03/17 13:59:50;;;;;;;0.77;0.77;;;;;;;;;;4984917;28;20039;-83
2022/03/17 14:02:17;;;;;;;0.98;0.98;;;;;;;;;;4986471;28;20037;-83
2022/03/17 14:04:56;;;;;;;0.98;0.98;;;;;;;;;;4983785;28;20108;-83
2022/03/17 14:07:22;;;;;;;1.13;1.13;;;;;;;;;;4983666;28;20753;-83
2022/03/17 14:09:48;;;;;;;0.70;0.70;;;;;;;;;;4983648;28;20113;-83
2022/03/17 14:12:15;;;;;;;0.90;0.90;;;;;;;;;;4981306;28;20069;-83
2022/03/17 14:14:41;;;;;;;0.40;0.40;;;;;;;;;;4985613;28;20031;-83
2022/03/17 14:17:10;;;;;;;0.50;0.50;;;;;;;;;;4987527;28;20058;-83
2022/03/17 14:19:36;;;;;;;1.00;1.00;;;;;;;;;;4983795;28;20038;-83
2022/03/17 14:24:46;;;;;;;0.00;0.00;;;;;;;;;;4984513;28;20128;-83
2022/03/17 14:27:12;;;;;;;0.10;0.10;;;;;;;;;;4983649;28;20102;-83
2022/03/17 14:29:38;;;;;;;0.00;0.00;;;;;;;;;;4986138;28;20038;-83
2022/03/17 14:32:05;;;;;;;0.10;0.10;;;;;;;;;;4984840;28;20101;-83
2022/03/17 14:34:31;;;;;;;0.10;0.10;;;;;;;;;;4983091;28;20297;-84
2022/03/17 14:36:57;;;;;;;0.10;0.10;;;;;;;;;;4983552;28;20037;-83
2022/03/17 14:39:23;;;;;;;0.10;0.10;;;;;;;;;;4985656;28;20042;-83
2022/03/17 14:41:52;;;;;;;0.10;0.10;;;;;;;;;;4984715;28;20023;-83
2022/03/17 14:44:18;;;;;;;0.10;0.10;;;;;;;;;;4986503;28;20270;-83
2022/03/17 14:46:44;;;;;;;0.10;0.10;;;;;;;;;;4984178;28;20076;-83
2022/03/17 14:49:11;;;;;;;0.10;0.10;;;;;;;;;;4983807;28;20057;-83
2022/03/17 14:51:37;;;;;;;;;;;;;;;;;;4983511;28;20038;-83
2022/03/17 14:54:05;;;;;;;0.20;0.20;;;;;;;;;;4983046;28;20005;-84
2022/03/17 14:56:31;;;;;;;0.10;0.10;;;;;;;;;;4985679;28;20045;-83
2022/03/17 14:58:57;;;;;;;0.10;0.10;;;;;;;;;;4985427;28;20050;-83
2022/03/17 15:01:24;;;;;;;0.10;0.10;;;;;;;;;;4982879;28;20031;-83
2022/03/17 15:03:50;;;;;;;0.20;0.20;;;;;;;;;;4983886;28;20390;-83
2022/03/17 15:06:17;;;;;;;0.20;0.20;;;;;;;;;;4982732;28;20101;-85
2022/03/17 15:08:44;;;;;;;0.20;0.20;;;;;;;;;;4983154;28;20542;-85
2022/03/17 15:11:12;;;;;;;0.20;0.20;;;;;;;;;;4985066;28;20108;-85
2022/03/17 15:13:38;;;;;;;0.10;0.10;;;;;;;;;;4984599;28;20085;-86